Time;durP1;ratioP1;P1;durP2;ratioP2;P2;SDS_P1;SDS_P2;PMS_P1;PMS_P2;Temp;Humidity;BMP_temperature;BMP_pressure;BME280_temperature;BME280_humidity;BME280_pressure;Samples;Min_cycle;Max_cycle;Signal;HPM_P1;HPM_P2
2023/02/05 00:01:28;;;;;;;33.25;10.95;;;;;;;11.21;60.78;103626.94;4966457;28;113605;-71
2023/02/05 00:03:55;;;;;;;27.67;11.00;;;;;;;11.21;60.83;103618.97;4965937;28;113821;-71
2023/02/05 00:06:22;;;;;;;28.60;10.52;;;;;;;11.19;60.92;103620.72;4975540;28;123207;-71
2023/02/05 00:08:49;;;;;;;28.25;10.95;;;;;;;11.19;60.88;103620.72;4964385;28;124315;-71
2023/02/05 00:11:16;;;;;;;26.00;11.18;;;;;;;11.19;60.81;103620.72;4962208;28;114689;-71
2023/02/05 00:13:44;;;;;;;30.58;11.18;;;;;;;11.21;60.98;103624.28;4966504;28;113547;-71
2023/02/05 00:16:14;;;;;;;30.60;11.25;;;;;;;11.21;60.88;103609.22;4964617;28;123949;-71
2023/02/05 00:18:41;;;;;;;36.72;12.05;;;;;;;11.20;61.00;103606.56;4964224;28;123982;-71
2023/02/05 00:21:10;;;;;;;28.05;11.32;;;;;;;11.20;60.92;103604.81;4964067;28;114425;-71
2023/02/05 00:23:38;;;;;;;26.45;10.85;;;;;;;11.21;60.98;103597.75;4962536;28;114239;-70
2023/02/05 00:26:06;;;;;;;29.35;11.20;;;;;;;11.21;60.99;103597.75;4965142;28;124123;-71
2023/02/05 00:28:34;;;;;;;30.60;10.90;;;;;;;11.21;61.09;103589.78;4960572;28;123909;-71
2023/02/05 00:31:07;;;;;;;34.92;12.40;;;;;;;11.20;61.14;103586.22;4960084;28;113781;-71
2023/02/05 00:33:35;;;;;;;30.92;12.13;;;;;;;11.21;61.01;103571.22;4957974;28;114077;-71
2023/02/05 00:36:03;;;;;;;28.45;11.77;;;;;;;11.22;61.21;103572.97;4976048;28;123104;-71
2023/02/05 00:38:30;;;;;;;39.83;13.18;;;;;;;11.22;61.21;103562.34;4954965;28;123857;-71
2023/02/05 00:40:57;;;;;;;34.65;13.30;;;;;;;11.23;61.19;103558.84;4960106;28;115423;-71
2023/02/05 00:43:24;;;;;;;30.88;12.40;;;;;;;11.23;61.35;103558.84;4963740;28;114996;-71
2023/02/05 00:45:51;;;;;;;33.63;12.75;;;;;;;11.25;61.42;103567.66;4961869;28;124033;-71
2023/02/05 00:48:18;;;;;;;26.45;11.88;;;;;;;11.27;61.34;103565.88;4961964;28;124024;-71
2023/02/05 00:50:51;;;;;;;28.55;12.40;;;;;;;11.29;61.37;103564.09;4963900;28;114913;-71
2023/02/05 00:53:19;;;;;;;34.00;12.45;;;;;;;11.32;61.26;103563.19;4957113;28;113890;-71
2023/02/05 00:55:46;;;;;;;32.63;12.10;;;;;;;11.31;61.41;103554.38;4957805;28;124016;-71
2023/02/05 00:58:13;;;;;;;33.55;12.82;;;;;;;11.34;61.39;103550.81;4966543;28;122750;-71
2023/02/05 01:00:41;;;;;;;34.72;13.70;;;;;;;11.34;61.32;103550.81;4974882;28;113415;-71
2023/02/05 01:03:09;;;;;;;35.22;13.73;;;;;;;11.34;61.40;103554.34;4970850;28;113640;-71
2023/02/05 01:05:37;;;;;;;33.47;14.10;;;;;;;11.35;61.61;103558.75;4951771;28;123332;-71
2023/02/05 01:08:06;;;;;;;36.88;14.57;;;;;;;11.35;61.58;103553.44;4951546;28;124069;-71
2023/02/05 01:10:34;;;;;;;36.72;14.88;;;;;;;11.37;61.60;103562.28;4961401;28;114356;-71
2023/02/05 01:13:02;;;;;;;34.38;14.57;;;;;;;11.39;61.46;103565.81;4983531;28;113593;-71
2023/02/05 01:15:29;;;;;;;40.35;16.05;;;;;;;11.38;61.42;103564.06;4964354;28;124571;-71
2023/02/05 01:17:58;;;;;;;39.88;15.32;;;;;;;11.40;61.63;103556.97;4972082;28;124868;-71
2023/02/05 01:20:26;;;;;;;42.58;17.83;;;;;;;11.39;61.86;103544.59;4973806;28;113668;-71
2023/02/05 01:22:53;;;;;;;45.38;17.17;;;;;;;11.40;61.93;103541.06;4960795;28;114085;-71
2023/02/05 01:25:22;;;;;;;44.03;18.05;;;;;;;11.41;61.92;103537.50;4970792;28;124213;-71
2023/02/05 01:27:50;;;;;;;49.60;18.85;;;;;;;11.42;61.84;103544.56;4977242;28;123012;-71
2023/02/05 01:30:17;;;;;;;41.47;17.48;;;;;;;11.44;61.97;103557.84;4973638;28;115619;-71
2023/02/05 01:32:44;;;;;;;46.55;18.98;;;;;;;11.42;62.04;103571.13;4957760;28;115136;-71
2023/02/05 01:35:12;;;;;;;48.67;20.35;;;;;;;11.45;61.99;103570.22;4953496;28;123393;-71
2023/02/05 01:37:39;;;;;;;54.92;21.38;;;;;;;11.44;61.96;103564.03;4970902;28;123650;-71
2023/02/05 01:40:06;;;;;;;53.67;21.00;;;;;;;11.46;62.16;103572.84;4967077;28;113313;-71
2023/02/05 01:42:33;;;;;;;56.05;22.00;;;;;;;11.47;62.17;103574.63;4968207;28;114045;-71
2023/02/05 01:45:20;;;;;;;63.42;22.67;;;;;;;11.47;62.11;103573.72;4962209;28;123456;-71
2023/02/05 01:47:48;;;;;;;53.75;23.05;;;;;;;11.47;62.13;103579.94;4961433;28;122988;-71
2023/02/05 01:50:18;;;;;;;55.25;21.95;;;;;;;11.48;62.32;103571.06;4954267;28;114252;-71
2023/02/05 01:52:45;;;;;;;53.28;22.40;;;;;;;11.48;62.21;103565.78;4961461;28;113486;-71
2023/02/05 01:55:12;;;;;;;60.35;25.73;;;;;;;11.49;62.16;103567.56;4960566;28;123804;-71
2023/02/05 01:57:40;;;;;;;61.65;23.55;;;;;;;11.52;62.36;103566.63;4977315;28;124750;-71
2023/02/05 02:00:08;;;;;;;61.25;25.20;;;;;;;11.54;62.33;103563.97;4963996;28;114305;-71
2023/02/05 02:02:42;;;;;;;58.42;24.92;;;;;;;11.55;62.18;103560.47;4961641;28;113401;-71
2023/02/05 02:05:13;;;;;;;55.22;24.63;;;;;;;11.55;62.51;103560.47;4963287;28;124258;-71
2023/02/05 02:07:40;;;;;;;57.90;24.33;;;;;;;11.56;62.44;103567.50;4968719;28;124145;-71
2023/02/05 02:10:11;;;;;;;54.40;24.38;;;;;;;11.57;62.45;103563.97;4965851;28;114256;-71
2023/02/05 02:12:41;;;;;;;53.25;23.63;;;;;;;11.56;62.34;103562.19;4961418;28;114047;-71
2023/02/05 02:15:13;;;;;;;53.20;24.00;;;;;;;11.55;62.49;103550.72;4962443;28;124646;-71
2023/02/05 02:17:43;;;;;;;57.58;24.23;;;;;;;11.56;62.40;103554.25;4957344;28;123105;-71
2023/02/05 02:20:14;;;;;;;52.47;24.63;;;;;;;11.56;62.51;103540.97;4977652;28;115772;-71
2023/02/05 02:23:11;;;;;;;51.35;22.98;;;;;;;11.56;62.56;103541.84;4963376;28;114950;-71
2023/02/05 02:25:41;;;;;;;50.15;22.52;;;;;;;11.57;62.51;103537.44;4963025;28;123923;-71
2023/02/05 02:28:12;;;;;;;45.38;22.20;;;;;;;11.59;62.66;103546.28;4962779;28;123754;-71
2023/02/05 02:30:42;;;;;;;49.70;22.40;;;;;;;11.57;62.48;103548.94;4965713;28;114300;-71
2023/02/05 02:33:36;;;;;;;49.40;22.88;;;;;;;11.56;62.44;103546.28;4954641;28;114224;-71
2023/02/05 02:36:22;;;;;;;52.60;23.30;;;;;;;11.57;62.49;103527.69;4953510;28;123798;-71
2023/02/05 02:39:10;;;;;;;49.17;22.90;;;;;;;11.57;62.40;103526.81;4958180;28;123630;-71
2023/02/05 02:41:49;;;;;;;48.13;21.88;;;;;;;11.55;62.44;103523.28;4963444;28;114875;-71
2023/02/05 02:44:39;;;;;;;43.85;21.33;;;;;;;11.55;62.67;103513.56;4967440;28;112916;-71
2023/02/05 02:47:27;;;;;;;46.58;21.98;;;;;;;11.55;62.52;103512.69;4961749;28;123559;-71
2023/02/05 02:50:23;;;;;;;48.50;22.77;;;;;;;11.54;62.40;103522.38;4953684;28;123672;-70
2023/02/05 02:52:52;;;;;;;45.20;22.40;;;;;;;11.55;62.59;103518.00;4965268;28;113163;-71
2023/02/05 02:55:22;;;;;;;43.67;21.98;;;;;;;11.54;62.60;103510.91;4965830;28;113367;-71
2023/02/05 02:57:51;;;;;;;43.53;21.23;;;;;;;11.53;62.59;103519.75;4962200;28;124164;-71
2023/02/05 03:00:23;;;;;;;42.92;21.10;;;;;;;11.52;62.60;103518.00;4962826;28;123021;-71
2023/02/05 03:02:57;;;;;;;41.47;20.60;;;;;;;11.50;62.54;103518.88;4951468;28;113599;-71
2023/02/05 03:05:27;;;;;;;43.90;21.35;;;;;;;11.48;62.57;103518.00;4978144;28;113894;-71
2023/02/05 03:08:01;;;;;;;41.90;21.00;;;;;;;11.49;62.69;103514.47;4967738;28;124583;-71
2023/02/05 03:10:41;;;;;;;41.55;20.27;;;;;;;11.48;62.60;103515.34;4963376;28;124052;-71
2023/02/05 03:13:10;;;;;;;43.08;20.85;;;;;;;11.47;62.64;103516.25;4976772;28;114858;-71
2023/02/05 03:15:42;;;;;;;44.55;20.95;;;;;;;11.47;62.43;103510.94;4958849;28;114670;-71
2023/02/05 03:18:12;;;;;;;44.85;20.73;;;;;;;11.46;62.71;103497.69;4973207;28;123216;-73
2023/02/05 03:20:55;;;;;;;41.75;20.48;;;;;;;11.45;62.71;103496.81;4965940;28;123024;-71
2023/02/05 03:23:25;;;;;;;41.47;20.38;;;;;;;11.44;62.68;103495.03;4956106;28;113383;-71
2023/02/05 03:25:52;;;;;;;42.90;20.92;;;;;;;11.44;62.69;103495.03;4960427;28;113552;-71
2023/02/05 03:28:25;;;;;;;38.85;20.10;;;;;;;11.43;62.70;103480.00;4957152;28;125552;-71
2023/02/05 03:31:07;;;;;;;38.53;20.27;;;;;;;11.42;62.71;103491.50;4956272;28;124632;-71
2023/02/05 03:33:38;;;;;;;39.05;19.67;;;;;;;11.42;62.61;103495.94;4962463;28;113857;-71
2023/02/05 03:36:15;;;;;;;42.17;20.85;;;;;;;11.41;62.78;103503.00;4956235;28;113929;-71
2023/02/05 03:39:00;;;;;;;36.67;19.75;;;;;;;11.41;62.63;103500.34;4969772;28;123569;-71
2023/02/05 03:41:58;;;;;;;35.60;19.05;;;;;;;11.41;62.55;103510.97;4956589;28;124036;-71
2023/02/05 03:44:52;;;;;;;38.55;19.50;;;;;;;11.41;62.84;103520.69;4972729;28;114307;-71
2023/02/05 03:47:37;;;;;;;39.83;19.38;;;;;;;11.39;62.74;103523.34;4976283;28;113192;-71
2023/02/05 03:50:20;;;;;;;37.28;19.30;;;;;;;11.38;62.63;103516.31;4962082;28;123923;-71
2023/02/05 03:52:56;;;;;;;38.20;18.42;;;;;;;11.37;62.78;103525.13;4976479;28;123663;-71
2023/02/05 03:55:31;;;;;;;40.20;19.23;;;;;;;11.37;62.93;103525.13;4958462;28;113560;-71
2023/02/05 03:58:07;;;;;;;33.53;18.33;;;;;;;11.35;62.58;103521.63;4961816;28;113168;-71
2023/02/05 04:00:36;;;;;;;34.72;18.40;;;;;;;11.35;62.72;103524.25;4956891;28;123436;-71
2023/02/05 04:03:04;;;;;;;34.88;18.27;;;;;;;11.34;62.73;103525.16;4960353;28;123117;-71
2023/02/05 04:05:32;;;;;;;33.47;18.33;;;;;;;11.33;62.62;103518.09;4977778;28;114330;-71
2023/02/05 04:08:02;;;;;;;36.80;18.52;;;;;;;11.33;62.62;103523.41;4981864;28;114454;-72
2023/02/05 04:10:35;;;;;;;34.35;18.15;;;;;;;11.31;62.77;103530.47;4969822;28;124896;-71
2023/02/05 04:13:03;;;;;;;33.08;17.25;;;;;;;11.29;62.74;103537.56;4953563;28;123377;-72
2023/02/05 04:15:32;;;;;;;31.85;16.98;;;;;;;11.28;62.74;103535.78;4972677;28;114286;-71
2023/02/05 04:18:01;;;;;;;33.83;16.80;;;;;;;11.27;62.68;103534.03;4965627;28;113034;-71
2023/02/05 04:20:29;;;;;;;29.10;16.15;;;;;;;11.25;62.65;103535.81;4960669;28;123311;-72
2023/02/05 04:22:57;;;;;;;31.10;15.80;;;;;;;11.23;62.62;103527.00;4978871;28;123407;-72
2023/02/05 04:25:25;;;;;;;27.38;15.43;;;;;;;11.22;62.54;103530.53;4966422;28;114701;-72
2023/02/05 04:27:54;;;;;;;27.52;14.50;;;;;;;11.20;62.66;103527.00;4971939;28;113385;-72
2023/02/05 04:30:22;;;;;;;30.50;15.00;;;;;;;11.21;62.68;103526.13;4971779;28;123474;-72
2023/02/05 04:32:50;;;;;;;31.05;14.88;;;;;;;11.20;62.72;103537.59;4976174;28;123340;-72
2023/02/05 04:35:17;;;;;;;29.73;14.25;;;;;;;11.19;62.61;103517.25;4977438;28;113005;-71
2023/02/05 04:37:46;;;;;;;26.45;14.10;;;;;;;11.19;62.44;103518.16;4957499;28;113856;-72
2023/02/05 04:40:15;;;;;;;26.67;13.73;;;;;;;11.20;62.65;103511.09;4971931;28;125249;-71
2023/02/05 04:42:42;;;;;;;26.00;12.88;;;;;;;11.20;62.51;103511.09;4964696;28;123738;-71
2023/02/05 04:45:11;;;;;;;24.00;12.95;;;;;;;11.19;62.54;103519.91;4973992;28;114712;-71
2023/02/05 04:47:38;;;;;;;24.42;12.75;;;;;;;11.17;62.35;103512.00;4975211;28;113885;-72
2023/02/05 04:50:06;;;;;;;23.58;12.40;;;;;;;11.17;62.48;103516.38;4956262;28;123863;-71
2023/02/05 04:52:33;;;;;;;25.55;12.40;;;;;;;11.16;62.29;103515.50;4960710;28;123159;-71
2023/02/05 04:55:00;;;;;;;22.83;11.77;;;;;;;11.15;62.44;103512.88;4959165;28;115861;-71
2023/02/05 04:57:29;;;;;;;21.73;10.93;;;;;;;11.15;62.28;103518.16;4961727;28;115270;-71
2023/02/05 04:59:56;;;;;;;22.77;10.65;;;;;;;11.15;62.37;103512.88;4960591;28;124116;-71
2023/02/05 05:02:24;;;;;;;19.98;10.90;;;;;;;11.14;62.32;103516.44;4960213;28;124420;-71
2023/02/05 05:04:51;;;;;;;22.38;10.80;;;;;;;11.14;62.25;103517.28;4965982;28;114003;-71
2023/02/05 05:07:18;;;;;;;20.17;9.82;;;;;;;11.14;62.10;103521.72;4955348;28;113836;-71
2023/02/05 05:09:45;;;;;;;19.80;9.93;;;;;;;11.14;62.04;103521.72;4968545;28;123923;-71
2023/02/05 05:12:12;;;;;;;19.58;9.68;;;;;;;11.13;62.38;103525.25;4960780;28;124365;-71
2023/02/05 05:14:39;;;;;;;20.35;9.75;;;;;;;11.12;62.11;103510.25;4963851;28;113698;-71
2023/02/05 05:17:06;;;;;;;16.33;8.90;;;;;;;11.11;62.03;103517.31;4966931;28;114130;-72
2023/02/05 05:19:33;;;;;;;16.00;8.00;;;;;;;11.09;62.21;103525.28;4960082;28;123813;-71
2023/02/05 05:22:01;;;;;;;16.23;8.48;;;;;;;11.09;62.03;103524.38;4960137;28;122654;-71
2023/02/05 05:24:28;;;;;;;17.08;8.57;;;;;;;11.08;62.05;103523.50;4980360;28;114454;-72
2023/02/05 05:26:55;;;;;;;16.13;8.52;;;;;;;11.07;62.10;103516.44;4967759;28;113941;-71
2023/02/05 05:29:22;;;;;;;20.05;8.18;;;;;;;11.06;62.03;103514.69;4959388;28;123980;-71
2023/02/05 05:31:52;;;;;;;15.10;7.95;;;;;;;11.06;62.09;103509.38;4959019;28;124426;-71
2023/02/05 05:34:19;;;;;;;15.90;7.43;;;;;;;11.07;62.10;103511.13;4964123;28;114071;-71
2023/02/05 05:36:46;;;;;;;16.35;7.57;;;;;;;11.07;62.07;103516.44;4960331;28;114081;-72
2023/02/05 05:44:50;;;;;;;15.90;7.35;;;;;;;11.04;62.01;103515.59;4960674;28;115412;-71
2023/02/05 05:47:18;;;;;;;15.20;7.55;;;;;;;11.03;62.05;103509.38;4959100;28;115215;-71
2023/02/05 05:49:46;;;;;;;18.70;7.97;;;;;;;11.02;62.22;103512.94;4966913;28;124322;-72
2023/02/05 05:52:13;;;;;;;15.45;7.50;;;;;;;11.02;62.01;103507.63;4976425;28;123932;-71
2023/02/05 05:54:40;;;;;;;14.07;7.13;;;;;;;11.02;62.25;103502.31;4959250;28;114783;-71
2023/02/05 05:57:07;;;;;;;12.88;6.85;;;;;;;11.02;62.04;103507.63;4981809;28;113087;-71
2023/02/05 05:59:35;;;;;;;14.40;7.50;;;;;;;11.02;62.23;103506.72;4982481;28;123130;-72
2023/02/05 06:02:02;;;;;;;15.10;6.88;;;;;;;11.00;62.22;103485.53;4970191;28;123912;-71
2023/02/05 06:04:30;;;;;;;15.80;7.35;;;;;;;11.01;62.14;103494.38;4966937;28;113965;-71
2023/02/05 06:06:58;;;;;;;15.73;7.82;;;;;;;11.01;62.39;103487.28;4962097;28;114335;-71
2023/02/05 06:09:25;;;;;;;14.88;7.65;;;;;;;11.01;62.27;103484.63;4964134;28;124088;-71
2023/02/05 06:11:52;;;;;;;15.25;7.95;;;;;;;11.00;62.26;103490.84;4962078;28;123893;-71
2023/02/05 06:14:19;;;;;;;17.40;7.45;;;;;;;11.00;62.42;103493.50;4965098;28;114037;-71
2023/02/05 06:16:46;;;;;;;13.68;7.50;;;;;;;11.00;62.46;103482.88;4962219;28;114254;-71
2023/02/05 06:19:13;;;;;;;15.02;8.00;;;;;;;11.00;62.48;103482.88;4981630;28;123773;-71
2023/02/05 06:21:40;;;;;;;16.35;7.78;;;;;;;10.99;62.40;103475.81;4953283;28;123827;-71
2023/02/05 06:24:07;;;;;;;15.82;8.07;;;;;;;10.97;62.38;103472.28;4958469;28;114167;-71
2023/02/05 06:26:35;;;;;;;16.65;7.60;;;;;;;10.95;62.28;103484.66;4978268;28;113983;-71
2023/02/05 06:29:02;;;;;;;18.75;8.68;;;;;;;10.94;62.44;103482.88;4956774;28;123362;-71
2023/02/05 06:31:30;;;;;;;17.25;8.15;;;;;;;10.92;62.63;103479.38;4961006;28;124153;-71
2023/02/05 06:34:00;;;;;;;14.73;7.55;;;;;;;10.90;62.73;103481.16;4976508;28;114298;-71
2023/02/05 06:36:27;;;;;;;12.75;7.35;;;;;;;10.90;62.59;103486.44;4962548;28;114856;-71
2023/02/05 06:38:54;;;;;;;12.68;7.28;;;;;;;10.89;62.46;103490.00;4964206;28;123938;-71
2023/02/05 06:41:21;;;;;;;13.38;6.38;;;;;;;10.88;62.76;103491.75;4974260;28;123027;-71
2023/02/05 06:43:48;;;;;;;12.13;6.03;;;;;;;10.86;62.56;103490.00;4962736;28;114220;-71
2023/02/05 06:46:15;;;;;;;10.05;5.72;;;;;;;10.83;62.71;103490.00;4972420;28;114294;-71
2023/02/05 06:48:42;;;;;;;9.93;5.43;;;;;;;10.81;62.28;103507.69;4961795;28;124416;-71
2023/02/05 06:51:09;;;;;;;7.90;3.65;;;;;;;10.78;62.74;103524.50;4961384;28;123738;-71
2023/02/05 06:53:36;;;;;;;5.85;2.20;;;;;;;10.74;62.56;103532.44;4959226;28;114958;-71
2023/02/05 06:56:04;;;;;;;3.85;1.67;;;;;;;10.65;62.41;103528.94;4960157;28;114409;-72
2023/02/05 06:58:31;;;;;;;5.53;1.60;;;;;;;10.60;62.30;103541.31;4962031;28;124079;-70
2023/02/05 07:00:58;;;;;;;4.50;1.20;;;;;;;10.53;62.28;103536.94;4952779;28;123640;-71
2023/02/05 07:03:25;;;;;;;6.82;1.13;;;;;;;10.46;62.30;103559.88;4959953;28;114205;-71
2023/02/05 07:05:52;;;;;;;8.23;1.27;;;;;;;10.41;62.03;103566.94;4957873;28;113856;-71
2023/02/05 07:08:19;;;;;;;5.60;1.00;;;;;;;10.36;62.02;103578.44;4955228;28;123811;-71
2023/02/05 07:10:46;;;;;;;7.03;1.10;;;;;;;10.31;62.31;103576.66;4976717;28;123294;-71
2023/02/05 07:13:13;;;;;;;6.90;1.00;;;;;;;10.27;62.27;103580.16;4955119;28;114086;-72
2023/02/05 07:15:41;;;;;;;4.30;0.88;;;;;;;10.23;61.94;103594.31;4975631;28;113093;-71
2023/02/05 07:18:08;;;;;;;6.88;1.10;;;;;;;10.20;61.96;103599.59;4971136;28;125438;-72
2023/02/05 07:20:35;;;;;;;5.97;1.08;;;;;;;10.17;62.02;103610.19;4979255;28;123767;-72
2023/02/05 07:23:04;;;;;;;7.32;1.00;;;;;;;10.14;61.87;103604.88;4963188;28;114713;-71
2023/02/05 07:25:35;;;;;;;5.45;1.40;;;;;;;10.11;61.96;103620.75;4972191;28;115112;-72
2023/02/05 07:28:07;;;;;;;4.93;0.88;;;;;;;10.08;61.80;103626.06;4953557;28;125786;-71
2023/02/05 07:30:35;;;;;;;8.32;0.75;;;;;;;10.03;62.01;103627.81;4974143;28;122885;-71
2023/02/05 07:33:04;;;;;;;8.50;1.45;;;;;;;9.99;61.98;103626.03;4956933;28;114316;-71
2023/02/05 07:35:32;;;;;;;4.20;0.80;;;;;;;9.96;62.01;103626.03;4979062;28;113373;-71
2023/02/05 07:37:59;;;;;;;4.28;0.77;;;;;;;9.93;61.90;103642.78;4974714;28;123235;-71
2023/02/05 07:40:26;;;;;;;2.05;0.70;;;;;;;9.89;61.89;103647.19;4970935;28;124153;-70
2023/02/05 07:42:53;;;;;;;4.88;0.70;;;;;;;9.87;62.09;103648.97;4958545;28;114046;-70
2023/02/05 07:45:21;;;;;;;4.53;0.80;;;;;;;9.86;61.89;103647.19;4961570;28;114806;-70
2023/02/05 07:47:52;;;;;;;6.00;1.00;;;;;;;9.84;61.87;103648.06;4972786;28;125162;-71
2023/02/05 07:50:19;;;;;;;1.85;0.75;;;;;;;9.82;61.82;103653.34;4958266;28;123969;-70
2023/02/05 07:52:46;;;;;;;3.47;0.80;;;;;;;9.82;61.94;103661.28;4963702;28;114383;-71
2023/02/05 07:55:14;;;;;;;2.85;1.13;;;;;;;9.82;61.94;103661.28;4975795;28;113650;-71
2023/02/05 07:57:41;;;;;;;2.13;0.98;;;;;;;9.83;61.88;103668.38;4958792;28;124061;-71
2023/02/05 08:00:08;;;;;;;5.07;0.90;;;;;;;9.82;61.98;103661.28;4958899;28;125843;-71
2023/02/05 08:02:38;;;;;;;4.35;0.80;;;;;;;9.83;62.05;103668.38;4960476;28;113786;-71
2023/02/05 08:05:06;;;;;;;4.38;1.08;;;;;;;9.84;62.02;103664.81;4952008;28;114096;-70
2023/02/05 08:07:33;;;;;;;4.40;0.90;;;;;;;9.86;61.86;103684.25;4957541;28;123989;-70
2023/02/05 08:10:00;;;;;;;4.15;1.00;;;;;;;9.87;61.82;103680.72;4957228;28;123796;-71
2023/02/05 08:12:27;;;;;;;4.78;1.00;;;;;;;9.90;61.74;103691.31;4975316;28;114377;-71
2023/02/05 08:14:55;;;;;;;2.78;0.90;;;;;;;9.91;61.77;103682.50;4954424;28;115302;-70
2023/02/05 08:17:22;;;;;;;3.80;0.88;;;;;;;9.93;61.67;103686.03;4975679;28;124336;-72
2023/02/05 08:22:54;;;;;;;8.05;1.05;;;;;;;9.97;61.75;103696.66;5022173;28;115073;-70
2023/02/05 08:25:21;;;;;;;4.35;0.88;;;;;;;9.98;61.96;103693.97;5024771;28;114055;-70
2023/02/05 08:27:48;;;;;;;6.07;1.00;;;;;;;10.00;61.71;103699.28;5024205;28;124576;-70
2023/02/05 08:30:17;;;;;;;4.18;1.02;;;;;;;10.00;61.63;103705.50;5007406;28;123186;-70
2023/02/05 08:32:48;;;;;;;6.00;1.10;;;;;;;10.03;61.70;103696.66;4998264;28;112087;-70
2023/02/05 08:35:17;;;;;;;7.28;1.25;;;;;;;10.04;61.85;103698.41;5023393;28;114340;-70
2023/02/05 08:37:44;;;;;;;6.97;1.20;;;;;;;10.06;61.86;103707.28;5021566;28;123344;-71
2023/02/05 08:40:12;;;;;;;7.55;1.20;;;;;;;10.08;61.76;103705.50;4988918;28;123682;-70
2023/02/05 08:42:39;;;;;;;9.32;1.40;;;;;;;10.09;61.79;103712.56;5026014;28;114623;-71
2023/02/05 08:45:07;;;;;;;7.55;1.60;;;;;;;10.10;61.79;103703.75;5018198;28;114296;-70
2023/02/05 08:47:35;;;;;;;7.05;1.17;;;;;;;10.13;61.68;103701.09;5002014;28;124219;-70
2023/02/05 08:50:04;;;;;;;8.10;1.10;;;;;;;10.15;61.25;103704.63;5010350;28;123143;-71
2023/02/05 08:52:32;;;;;;;4.95;1.30;;;;;;;10.16;61.42;103702.88;5024441;28;114321;-71
2023/02/05 08:54:59;;;;;;;7.28;1.13;;;;;;;10.17;61.45;103705.53;4990198;28;115215;-70
2023/02/05 08:57:28;;;;;;;7.97;1.40;;;;;;;10.16;61.55;103710.81;5021586;28;124819;-71
2023/02/05 08:59:56;;;;;;;8.95;1.35;;;;;;;10.16;61.31;103714.34;5025604;28;123758;-71
2023/02/05 09:02:23;;;;;;;6.50;1.30;;;;;;;10.16;61.41;103714.34;5009750;28;114999;-70
2023/02/05 09:04:56;;;;;;;7.53;1.48;;;;;;;10.16;61.28;103714.34;5018523;28;115170;-76
2023/02/05 09:07:37;;;;;;;12.73;1.85;;;;;;;10.16;61.21;103709.06;4989236;28;123789;-72
2023/02/05 09:10:11;;;;;;;10.32;1.63;;;;;;;10.16;61.49;103711.69;5020279;28;126797;-71
2023/02/05 09:12:39;;;;;;;5.63;1.30;;;;;;;10.18;60.98;103712.59;5018580;28;114587;-71
2023/02/05 09:15:07;;;;;;;11.18;1.58;;;;;;;10.17;61.34;103720.53;5023541;28;114854;-71
2023/02/05 09:17:34;;;;;;;8.60;1.95;;;;;;;10.17;61.05;103716.13;5025568;28;123532;-71
2023/02/05 09:20:02;;;;;;;10.93;1.60;;;;;;;10.17;61.17;103732.03;4998718;28;124736;-71
2023/02/05 09:22:30;;;;;;;12.30;1.42;;;;;;;10.17;61.11;103742.63;5028209;28;114362;-71
2023/02/05 09:24:57;;;;;;;11.57;1.80;;;;;;;10.17;61.05;103728.47;5017770;28;114387;-71
2023/02/05 09:27:25;;;;;;;7.38;1.23;;;;;;;10.17;61.22;103747.91;5018599;28;123825;-71
2023/02/05 09:29:52;;;;;;;7.90;1.70;;;;;;;10.16;61.15;103743.47;5005768;28;124211;-70
2023/02/05 09:32:19;;;;;;;17.10;2.10;;;;;;;10.16;61.19;103735.53;5008930;28;113216;-70
2023/02/05 09:34:48;;;;;;;10.20;2.28;;;;;;;10.16;61.34;103735.53;4994076;28;113984;-71
2023/02/05 09:37:16;;;;;;;3.58;1.33;;;;;;;10.15;61.13;103728.47;4986664;28;123738;-72
2023/02/05 09:39:44;;;;;;;8.85;1.67;;;;;;;10.14;61.52;103727.59;5013010;28;123774;-71
2023/02/05 09:42:54;;;;;;;9.15;1.65;;;;;;;10.14;61.15;103737.28;5025337;28;114567;-70
2023/02/05 09:45:47;;;;;;;10.68;1.60;;;;;;;10.13;61.34;103740.81;5008101;28;113496;-71
2023/02/05 09:48:45;;;;;;;9.50;2.00;;;;;;;10.12;61.42;103744.34;5024608;28;123811;-71
2023/02/05 09:51:12;;;;;;;8.65;1.60;;;;;;;10.11;61.19;103758.47;5024719;28;123753;-71
2023/02/05 09:53:48;;;;;;;13.25;1.80;;;;;;;10.12;61.26;103749.66;5004968;28;115231;-71
2023/02/05 09:56:16;;;;;;;12.15;2.08;;;;;;;10.14;61.38;103758.50;5000434;28;114476;-71
2023/02/05 09:58:48;;;;;;;8.70;1.63;;;;;;;10.19;61.56;103751.44;5018269;28;123998;-71
2023/02/05 10:01:20;;;;;;;19.17;2.47;;;;;;;10.22;61.47;103732.91;5006948;28;124148;-71
2023/02/05 10:03:59;;;;;;;16.00;2.88;;;;;;;10.28;61.42;103735.59;5000840;28;115222;-74
2023/02/05 10:07:00;;;;;;;8.55;2.20;;;;;;;10.34;61.49;103734.75;5003422;28;113660;-71
2023/02/05 10:10:06;;;;;;;13.05;2.78;;;;;;;10.41;61.37;103740.94;5025488;28;124132;-72
2023/02/05 10:12:45;;;;;;;10.10;2.40;;;;;;;10.46;61.39;103723.28;5021616;28;124657;-71
2023/02/05 10:15:18;;;;;;;15.18;3.30;;;;;;;10.52;61.41;103736.53;5022307;28;113930;-71
2023/02/05 10:18:19;;;;;;;11.98;2.60;;;;;;;10.59;61.21;103735.69;5022327;28;113618;-71
2023/02/05 10:21:05;;;;;;;11.50;2.70;;;;;;;10.64;61.28;103749.84;4995445;28;123440;-71
2023/02/05 10:23:56;;;;;;;12.30;2.53;;;;;;;10.69;60.97;103723.31;5004539;28;123079;-72
2023/02/05 10:26:34;;;;;;;13.82;2.78;;;;;;;10.74;61.08;103718.00;4995144;28;116683;-71
2023/02/05 10:29:17;;;;;;;12.95;2.95;;;;;;;10.78;60.78;103725.09;5024901;28;113577;-72
2023/02/05 10:31:53;;;;;;;9.60;2.15;;;;;;;10.81;60.88;103719.78;5003680;28;124002;-71
2023/02/05 10:34:46;;;;;;;14.40;2.33;;;;;;;10.84;60.69;103722.44;4992892;28;123273;-71
2023/02/05 10:37:17;;;;;;;10.15;2.67;;;;;;;10.87;60.42;103725.97;4987951;28;113514;-72
2023/02/05 10:39:47;;;;;;;19.75;2.80;;;;;;;10.90;60.36;103751.59;5012470;28;114054;-71
2023/02/05 10:42:14;;;;;;;16.58;2.30;;;;;;;10.93;60.35;103735.69;5009104;28;123245;-71
2023/02/05 10:44:48;;;;;;;20.42;2.92;;;;;;;10.95;60.05;103741.00;5000226;28;123854;-71
2023/02/05 10:47:23;;;;;;;17.75;2.55;;;;;;;10.96;60.03;103742.75;5007215;28;115334;-71
2023/02/05 10:50:01;;;;;;;14.07;2.90;;;;;;;10.97;59.78;103736.59;5023176;28;115640;-72
2023/02/05 10:52:30;;;;;;;14.25;2.88;;;;;;;10.97;59.84;103729.50;5020866;28;124161;-71
2023/02/05 10:54:57;;;;;;;14.80;2.03;;;;;;;10.98;59.92;103728.63;5023545;28;123971;-71
2023/02/05 10:57:30;;;;;;;14.82;2.35;;;;;;;10.99;59.72;103735.69;5008476;28;113563;-71
2023/02/05 11:00:02;;;;;;;17.52;2.50;;;;;;;11.00;59.36;103742.78;5020123;28;114311;-72
2023/02/05 11:02:38;;;;;;;15.10;2.83;;;;;;;11.03;59.46;103753.38;5021689;28;124715;-74
2023/02/05 11:05:12;;;;;;;;;;;;;;;11.06;59.62;103764.00;5023574;28;123490;-71
2023/02/05 11:07:44;;;;;;;5.97;1.88;;;;;;;11.09;59.62;103753.38;5017792;28;114409;-72
2023/02/05 11:10:15;;;;;;;16.35;2.65;;;;;;;11.10;59.41;103755.13;5021517;28;114146;-70
2023/02/05 11:12:45;;;;;;;15.60;2.50;;;;;;;11.10;59.31;103749.84;5029496;28;124057;-71
2023/02/05 11:15:25;;;;;;;10.02;2.40;;;;;;;11.13;59.13;103748.06;4997085;28;123268;-71
2023/02/05 11:17:57;;;;;;;13.23;2.80;;;;;;;11.16;58.96;103748.06;5022831;28;114338;-71
2023/02/05 11:20:53;;;;;;;8.52;2.20;;;;;;;11.17;58.96;103744.53;5016608;28;114893;-75
2023/02/05 11:23:24;;;;;;;13.77;2.55;;;;;;;11.19;58.67;103733.03;5006055;28;98727;-71
2023/02/05 11:25:57;;;;;;;12.73;2.63;;;;;;;11.21;58.57;103741.00;5022959;28;124166;-71
2023/02/05 11:28:29;;;;;;;16.20;2.53;;;;;;;11.24;58.69;103735.69;5018822;28;113382;-72
2023/02/05 11:31:17;;;;;;;17.83;2.58;;;;;;;11.28;58.71;103721.50;5017117;28;113715;-71
2023/02/05 11:33:46;;;;;;;11.00;2.08;;;;;;;11.31;58.67;103742.75;5001714;28;123188;-71
2023/02/05 11:36:21;;;;;;;13.77;2.42;;;;;;;11.35;58.55;103751.59;4993950;28;123389;-72